Wilpride — LARM7 — position and weather

sailwx.info

Track history (hours):
 
Tides and Currents Weather Stations Pressure Air Temp Water Temp Dewpoint Dewpoint Depression Visibility Wind Speed Wind Dir Waves Ship Positions

Wilpride

Last reported at 2018-Mar-21 02:05 UTC. Time now 2018-Apr-25 16:21 UTC.
Position N 35°58' W 005°36'.
Warning: this ship's position is 35 days out of date.

Length 290 m; draft 9.7 m.

Type: Ship (hazmat cat D). MMSI: 258703000.

Date/timePositionNaut miles runAvg speedWind from/ knotsBaromVisibWave heightAir tempDewpointWater temp
2018-Mar-21 02:05N 35°58' W 005°36'1 8.6
2018-Mar-21 02:00N 35°58' W 005°35'4 8.2
2018-Mar-21 01:30N 35°59' W 005°31'4 7.9
2018-Mar-21 01:00N 36°01' W 005°26'4 7.1
2018-Mar-21 00:30N 36°04' W 005°24'4 8.3
2018-Mar-21 00:00N 36°08' W 005°24'2 4.2
2018-Mar-20 23:30N 36°10' W 005°23'0 0.2
2018-Mar-20 22:41N 36°10' W 005°23'0 0.3
2018-Mar-20 22:29N 36°10' W 005°23'0 0.1
2018-Mar-20 21:56N 36°10' W 005°23'0 0.2
2018-Mar-20 21:29N 36°10' W 005°23'0 0.3
2018-Mar-20 20:56N 36°10' W 005°24'0 0.1
2018-Mar-20 18:02N 36°10' W 005°23'0 0.1
2018-Mar-20 17:44N 36°10' W 005°23'0 0.0
2018-Mar-20 17:17N 36°10' W 005°23'0 0.0
2018-Mar-20 16:56N 36°10' W 005°23'0 0.1
2018-Mar-20 16:02N 36°10' W 005°23'0 1.2
2018-Mar-20 15:53N 36°10' W 005°23'0 0.0
2018-Mar-20 14:41N 36°10' W 005°23'0 0.1
2018-Mar-20 14:29N 36°10' W 005°23'0 0.0
2018-Mar-20 13:53N 36°10' W 005°23'0 0.0
2018-Mar-20 13:29N 36°10' W 005°23'0 0.1
2018-Mar-20 12:59N 36°10' W 005°23'0 0.0
2018-Mar-20 12:29N 36°10' W 005°23'0 0.1
2018-Mar-20 11:53N 36°10' W 005°23'0 0.0
2018-Mar-20 11:26N 36°10' W 005°23'0 0.1
2018-Mar-20 10:59N 36°10' W 005°23'0 0.0
2018-Mar-20 10:23N 36°10' W 005°23'0 0.0
2018-Mar-20 09:59N 36°10' W 005°23'0 0.0
2018-Mar-20 09:29N 36°10' W 005°23'0 0.0
2018-Mar-20 08:53N 36°10' W 005°23'0 0.1
2018-Mar-20 08:26N 36°10' W 005°23'0 0.1
2018-Mar-20 07:59N 36°10' W 005°23'0 0.2
2018-Mar-20 07:29N 36°10' W 005°23'0 0.0
2018-Mar-20 06:59N 36°10' W 005°23'0 0.0
2018-Mar-20 06:29N 36°10' W 005°23'0 0.0
2018-Mar-20 05:56N 36°10' W 005°23'0 0.0
2018-Mar-20 05:29N 36°10' W 005°23'0 0.0
2018-Mar-20 04:56N 36°10' W 005°23'0 0.0
2018-Mar-20 04:29N 36°10' W 005°23'0 0.0
2018-Mar-20 03:56N 36°10' W 005°23'0 0.0
2018-Mar-20 03:29N 36°10' W 005°23'0 0.0
2018-Mar-20 02:59N 36°10' W 005°23'0 0.0
2018-Mar-20 02:29N 36°10' W 005°23'0 0.0
2018-Mar-20 01:59N 36°10' W 005°23'0 0.0
2018-Mar-20 01:29N 36°10' W 005°23'0 0.0
2018-Mar-20 00:59N 36°10' W 005°23'0 0.0
2018-Mar-20 00:26N 36°10' W 005°23'0 0.0
2018-Mar-19 23:59N 36°10' W 005°23'0 0.0
2018-Mar-19 23:26N 36°10' W 005°23'0 0.1
2018-Mar-19 22:59N 36°10' W 005°23'0 0.0
2018-Mar-19 22:29N 36°10' W 005°23'0 0.1
2018-Mar-19 21:59N 36°10' W 005°23'0 0.0
2018-Mar-19 21:29N 36°10' W 005°23'0 0.1
2018-Mar-19 20:59N 36°10' W 005°23'0 0.0
2018-Mar-19 20:29N 36°10' W 005°23'0 0.0
2018-Mar-19 19:59N 36°10' W 005°23'0 0.0
2018-Mar-19 19:29N 36°10' W 005°23'0 0.3
2018-Mar-19 18:56N 36°10' W 005°23'0 0.1
2018-Mar-19 18:11N 36°10' W 005°23'0 0.1
2018-Mar-19 17:41N 36°10' W 005°23'0 0.1
2018-Mar-19 17:26N 36°10' W 005°23'0 0.0
2018-Mar-19 16:53N 36°10' W 005°23'0 0.1
2018-Mar-19 16:29N 36°10' W 005°23'0 0.0
2018-Mar-19 15:53N 36°10' W 005°23'0 0.0
2018-Mar-19 15:29N 36°10' W 005°23'0 0.1
2018-Mar-19 14:56N 36°10' W 005°23'0 0.1
2018-Mar-19 14:29N 36°10' W 005°23'0 0.1
2018-Mar-19 13:56N 36°10' W 005°23'0 0.0
2018-Mar-19 13:29N 36°10' W 005°23'0 0.1
2018-Mar-19 12:59N 36°10' W 005°23'0 0.0
2018-Mar-19 12:14N 36°10' W 005°23'0 0.0
2018-Mar-19 11:44N 36°10' W 005°23'0 0.1
2018-Mar-19 11:29N 36°10' W 005°23'0 0.1
2018-Mar-19 10:56N 36°10' W 005°23'0 0.0
2018-Mar-19 10:23N 36°10' W 005°23'0 0.0
2018-Mar-19 09:53N 36°10' W 005°23'0 0.0
2018-Mar-19 09:29N 36°10' W 005°23'0 0.0
2018-Mar-19 08:59N 36°10' W 005°23'0 0.1
2018-Mar-19 07:41N 36°10' W 005°23'0 0.0
2018-Mar-19 07:29N 36°10' W 005°23'0 0.2
2018-Mar-19 06:59N 36°10' W 005°23'0 0.1
2018-Mar-19 06:29N 36°10' W 005°23'0 0.3
2018-Mar-19 05:56N 36°10' W 005°23'0 0.1
2018-Mar-19 05:14N 36°10' W 005°23'0 0.1
2018-Mar-19 04:59N 36°10' W 005°23'0 0.0
2018-Mar-19 04:29N 36°10' W 005°23'0 0.0
2018-Mar-19 03:29N 36°10' W 005°23'0 0.0
2018-Mar-19 02:53N 36°10' W 005°23'0 0.0
2018-Mar-19 02:23N 36°10' W 005°23'0 0.0
2018-Mar-19 01:41N 36°10' W 005°23'0 0.0
2018-Mar-19 01:29N 36°10' W 005°23'0 0.0
2018-Mar-19 00:47N 36°10' W 005°23'0 0.0
2018-Mar-19 00:29N 36°10' W 005°23'0 0.0
2018-Mar-18 23:59N 36°10' W 005°23'0 0.0
2018-Mar-18 23:23N 36°10' W 005°23'0 0.0
2018-Mar-18 22:59N 36°10' W 005°23'0 0.0
2018-Mar-18 22:29N 36°10' W 005°23'0 0.1
2018-Mar-18 21:08N 36°10' W 005°23'0 0.1
2018-Mar-18 20:59N 36°10' W 005°23'0 0.1
2018-Mar-18 20:23N 36°10' W 005°23'0 0.1
2018-Mar-18 19:59N 36°10' W 005°23'0 0.1
2018-Mar-18 19:17N 36°10' W 005°23'0 0.3
2018-Mar-18 18:56N 36°10' W 005°23'0 0.5
2018-Mar-18 18:30N 36°10' W 005°23'2 4.4
2018-Mar-18 18:00N 36°08' W 005°24'3 5.7
2018-Mar-18 17:30N 36°05' W 005°22'2 3.4
2018-Mar-18 17:00N 36°05' W 005°20'1 1.1
2018-Mar-18 16:30N 36°05' W 005°19'3 5.3
2018-Mar-18 16:00N 36°05' W 005°16'4 8.2
2018-Mar-18 15:30N 36°06' W 005°11'5 9.3
2018-Mar-18 14:56N 36°07' W 005°05'5 0.2
2018-Mar-17 10:40N 36°06' W 005°11'211.4
2018-Mar-17 10:30N 36°06' W 005°13'611.4
2018-Mar-17 10:00N 36°05' W 005°21'2 3.0
2018-Mar-17 09:28N 36°07' W 005°21'0 0.1
2018-Mar-17 08:58N 36°07' W 005°21'0 0.1
2018-Mar-17 08:28N 36°07' W 005°21'0 0.3
2018-Mar-17 07:58N 36°06' W 005°21'0 0.0
2018-Mar-17 07:28N 36°06' W 005°21'0 0.2
2018-Mar-17 06:55N 36°06' W 005°21'0 0.1
2018-Mar-17 06:25N 36°06' W 005°21'0 0.0
2018-Mar-17 05:58N 36°06' W 005°21'0 0.0
2018-Mar-17 05:28N 36°06' W 005°21'0 0.0
2018-Mar-17 04:58N 36°06' W 005°21'0 0.1
2018-Mar-17 04:28N 36°06' W 005°21'0 0.0
2018-Mar-17 03:58N 36°06' W 005°21'0 0.1
2018-Mar-17 03:28N 36°06' W 005°21'0 0.0
2018-Mar-17 02:28N 36°06' W 005°21'0 0.2
2018-Mar-17 01:58N 36°06' W 005°21'0 0.0
2018-Mar-17 01:28N 36°06' W 005°21'0 0.2
2018-Mar-17 00:58N 36°06' W 005°21'0 0.4
2018-Mar-17 00:30N 36°06' W 005°22'1 2.1
2018-Mar-17 00:00N 36°05' W 005°21'3 5.6
2018-Mar-16 23:30N 36°06' W 005°17'3 5.9
2018-Mar-16 23:00N 36°07' W 005°14'3 6.3
2018-Mar-16 22:30N 36°10' W 005°12'3 4.5
2018-Mar-16 21:45N 36°12' W 005°09'0 0.9
2018-Mar-16 21:30N 36°12' W 005°09'8 0.6
2018-Mar-16 09:06N 36°05' W 005°15'110.8
2018-Mar-16 09:00N 36°05' W 005°16'510.5
2018-Mar-16 08:30N 36°01' W 005°20'4 7.3
2018-Mar-16 08:00N 35°59' W 005°24'4 7.5
2018-Mar-16 07:30N 35°57' W 005°28'18 7.4
2018-Mar-16 05:03N 35°54' W 005°50'1 6.7
2018-Mar-16 04:58N 35°54' W 005°51'  
2018-Mar-12 20:46N 35°58' W 005°34'2 9.1
2018-Mar-12 20:30N 35°59' W 005°31'5 9.2
2018-Mar-12 20:01N 36°00' W 005°26'5 9.1
2018-Mar-12 19:30N 36°01' W 005°20'5 9.6
2018-Mar-12 19:00N 36°02' W 005°14'214 9.6
2018-Mar-11 20:44N 37°15' W 001°03'511.5
2018-Mar-11 20:16N 37°18' W 000°58'411.6
2018-Mar-11 19:56N 37°21' W 000°55'510.8
2018-Mar-11 19:29N 37°24' W 000°50'510.4
2018-Mar-11 19:00N 37°27' W 000°45'510.3
2018-Mar-11 18:29N 37°30' W 000°40'510.4
2018-Mar-11 18:00N 37°33' W 000°35'511.0
2018-Mar-11 17:30N 37°38' W 000°30'611.8
2018-Mar-11 17:00N 37°43' W 000°27'612.9
2018-Mar-11 16:30N 37°48' W 000°22'713.2
2018-Mar-11 16:00N 37°54' W 000°18'612.8
2018-Mar-11 15:30N 37°59' W 000°13'612.3
2018-Mar-11 15:00N 38°04' W 000°09'1212.3
2018-Mar-11 14:01N 38°14' W 000°00'012.0
2018-Mar-11 14:00N 38°14' W 000°00'1412.8
2018-Mar-11 12:55N 38°26' E 000°10'  
Track history (hours):
 
Tides and Currents Weather Stations Pressure Air Temp Water Temp Dewpoint Dewpoint Depression Visibility Wind Speed Wind Dir Waves Ship Positions

Wilpride

Last reported at 2018-Mar-21 02:05 UTC. Time now 2018-Apr-25 16:21 UTC.
Position N 35°58' W 005°36'.
Warning: this ship's position is 35 days out of date.

Length 290 m; draft 9.7 m.

Type: Ship (hazmat cat D). MMSI: 258703000.

Date/timePositionNaut miles runAvg speedWind from/ knotsBaromVisibWave heightAir tempDewpointWater temp
2018-Mar-21 02:05N 35°58' W 005°36'1 8.6
2018-Mar-21 02:00N 35°58' W 005°35'4 8.2
2018-Mar-21 01:30N 35°59' W 005°31'4 7.9
2018-Mar-21 01:00N 36°01' W 005°26'4 7.1
2018-Mar-21 00:30N 36°04' W 005°24'4 8.3
2018-Mar-21 00:00N 36°08' W 005°24'2 4.2
2018-Mar-20 23:30N 36°10' W 005°23'0 0.2
2018-Mar-20 22:41N 36°10' W 005°23'0 0.3
2018-Mar-20 22:29N 36°10' W 005°23'0 0.1
2018-Mar-20 21:56N 36°10' W 005°23'0 0.2
2018-Mar-20 21:29N 36°10' W 005°23'0 0.3
2018-Mar-20 20:56N 36°10' W 005°24'0 0.1
2018-Mar-20 18:02N 36°10' W 005°23'0 0.1
2018-Mar-20 17:44N 36°10' W 005°23'0 0.0
2018-Mar-20 17:17N 36°10' W 005°23'0 0.0
2018-Mar-20 16:56N 36°10' W 005°23'0 0.1
2018-Mar-20 16:02N 36°10' W 005°23'0 1.2
2018-Mar-20 15:53N 36°10' W 005°23'0 0.0
2018-Mar-20 14:41N 36°10' W 005°23'0 0.1
2018-Mar-20 14:29N 36°10' W 005°23'0 0.0
2018-Mar-20 13:53N 36°10' W 005°23'0 0.0
2018-Mar-20 13:29N 36°10' W 005°23'0 0.1
2018-Mar-20 12:59N 36°10' W 005°23'0 0.0
2018-Mar-20 12:29N 36°10' W 005°23'0 0.1
2018-Mar-20 11:53N 36°10' W 005°23'0 0.0
2018-Mar-20 11:26N 36°10' W 005°23'0 0.1
2018-Mar-20 10:59N 36°10' W 005°23'0 0.0
2018-Mar-20 10:23N 36°10' W 005°23'0 0.0
2018-Mar-20 09:59N 36°10' W 005°23'0 0.0
2018-Mar-20 09:29N 36°10' W 005°23'0 0.0
2018-Mar-20 08:53N 36°10' W 005°23'0 0.1
2018-Mar-20 08:26N 36°10' W 005°23'0 0.1
2018-Mar-20 07:59N 36°10' W 005°23'0 0.2
2018-Mar-20 07:29N 36°10' W 005°23'0 0.0
2018-Mar-20 06:59N 36°10' W 005°23'0 0.0
2018-Mar-20 06:29N 36°10' W 005°23'0 0.0
2018-Mar-20 05:56N 36°10' W 005°23'0 0.0
2018-Mar-20 05:29N 36°10' W 005°23'0 0.0
2018-Mar-20 04:56N 36°10' W 005°23'0 0.0
2018-Mar-20 04:29N 36°10' W 005°23'0 0.0
2018-Mar-20 03:56N 36°10' W 005°23'0 0.0
2018-Mar-20 03:29N 36°10' W 005°23'0 0.0
2018-Mar-20 02:59N 36°10' W 005°23'0 0.0
2018-Mar-20 02:29N 36°10' W 005°23'0 0.0
2018-Mar-20 01:59N 36°10' W 005°23'0 0.0
2018-Mar-20 01:29N 36°10' W 005°23'0 0.0
2018-Mar-20 00:59N 36°10' W 005°23'0 0.0
2018-Mar-20 00:26N 36°10' W 005°23'0 0.0
2018-Mar-19 23:59N 36°10' W 005°23'0 0.0
2018-Mar-19 23:26N 36°10' W 005°23'0 0.1
2018-Mar-19 22:59N 36°10' W 005°23'0 0.0
2018-Mar-19 22:29N 36°10' W 005°23'0 0.1
2018-Mar-19 21:59N 36°10' W 005°23'0 0.0
2018-Mar-19 21:29N 36°10' W 005°23'0 0.1
2018-Mar-19 20:59N 36°10' W 005°23'0 0.0
2018-Mar-19 20:29N 36°10' W 005°23'0 0.0
2018-Mar-19 19:59N 36°10' W 005°23'0 0.0
2018-Mar-19 19:29N 36°10' W 005°23'0 0.3
2018-Mar-19 18:56N 36°10' W 005°23'0 0.1
2018-Mar-19 18:11N 36°10' W 005°23'0 0.1
2018-Mar-19 17:41N 36°10' W 005°23'0 0.1
2018-Mar-19 17:26N 36°10' W 005°23'0 0.0
2018-Mar-19 16:53N 36°10' W 005°23'0 0.1
2018-Mar-19 16:29N 36°10' W 005°23'0 0.0
2018-Mar-19 15:53N 36°10' W 005°23'0 0.0
2018-Mar-19 15:29N 36°10' W 005°23'0 0.1
2018-Mar-19 14:56N 36°10' W 005°23'0 0.1
2018-Mar-19 14:29N 36°10' W 005°23'0 0.1
2018-Mar-19 13:56N 36°10' W 005°23'0 0.0
2018-Mar-19 13:29N 36°10' W 005°23'0 0.1
2018-Mar-19 12:59N 36°10' W 005°23'0 0.0
2018-Mar-19 12:14N 36°10' W 005°23'0 0.0
2018-Mar-19 11:44N 36°10' W 005°23'0 0.1
2018-Mar-19 11:29N 36°10' W 005°23'0 0.1
2018-Mar-19 10:56N 36°10' W 005°23'0 0.0
2018-Mar-19 10:23N 36°10' W 005°23'0 0.0
2018-Mar-19 09:53N 36°10' W 005°23'0 0.0
2018-Mar-19 09:29N 36°10' W 005°23'0 0.0
2018-Mar-19 08:59N 36°10' W 005°23'0 0.1
2018-Mar-19 07:41N 36°10' W 005°23'0 0.0
2018-Mar-19 07:29N 36°10' W 005°23'0 0.2
2018-Mar-19 06:59N 36°10' W 005°23'0 0.1
2018-Mar-19 06:29N 36°10' W 005°23'0 0.3
2018-Mar-19 05:56N 36°10' W 005°23'0 0.1
2018-Mar-19 05:14N 36°10' W 005°23'0 0.1
2018-Mar-19 04:59N 36°10' W 005°23'0 0.0
2018-Mar-19 04:29N 36°10' W 005°23'0 0.0
2018-Mar-19 03:29N 36°10' W 005°23'0 0.0
2018-Mar-19 02:53N 36°10' W 005°23'0 0.0
2018-Mar-19 02:23N 36°10' W 005°23'0 0.0
2018-Mar-19 01:41N 36°10' W 005°23'0 0.0
2018-Mar-19 01:29N 36°10' W 005°23'0 0.0
2018-Mar-19 00:47N 36°10' W 005°23'0 0.0
2018-Mar-19 00:29N 36°10' W 005°23'0 0.0
2018-Mar-18 23:59N 36°10' W 005°23'0 0.0
2018-Mar-18 23:23N 36°10' W 005°23'0 0.0
2018-Mar-18 22:59N 36°10' W 005°23'0 0.0
2018-Mar-18 22:29N 36°10' W 005°23'0 0.1
2018-Mar-18 21:08N 36°10' W 005°23'0 0.1
2018-Mar-18 20:59N 36°10' W 005°23'0 0.1
2018-Mar-18 20:23N 36°10' W 005°23'0 0.1
2018-Mar-18 19:59N 36°10' W 005°23'0 0.1
2018-Mar-18 19:17N 36°10' W 005°23'0 0.3
2018-Mar-18 18:56N 36°10' W 005°23'0 0.5
2018-Mar-18 18:30N 36°10' W 005°23'2 4.4
2018-Mar-18 18:00N 36°08' W 005°24'3 5.7
2018-Mar-18 17:30N 36°05' W 005°22'2 3.4
2018-Mar-18 17:00N 36°05' W 005°20'1 1.1
2018-Mar-18 16:30N 36°05' W 005°19'3 5.3
2018-Mar-18 16:00N 36°05' W 005°16'4 8.2
2018-Mar-18 15:30N 36°06' W 005°11'5 9.3
2018-Mar-18 14:56N 36°07' W 005°05'5 0.2
2018-Mar-17 10:40N 36°06' W 005°11'211.4
2018-Mar-17 10:30N 36°06' W 005°13'611.4
2018-Mar-17 10:00N 36°05' W 005°21'2 3.0
2018-Mar-17 09:28N 36°07' W 005°21'0 0.1
2018-Mar-17 08:58N 36°07' W 005°21'0 0.1
2018-Mar-17 08:28N 36°07' W 005°21'0 0.3
2018-Mar-17 07:58N 36°06' W 005°21'0 0.0
2018-Mar-17 07:28N 36°06' W 005°21'0 0.2
2018-Mar-17 06:55N 36°06' W 005°21'0 0.1
2018-Mar-17 06:25N 36°06' W 005°21'0 0.0
2018-Mar-17 05:58N 36°06' W 005°21'0 0.0
2018-Mar-17 05:28N 36°06' W 005°21'0 0.0
2018-Mar-17 04:58N 36°06' W 005°21'0 0.1
2018-Mar-17 04:28N 36°06' W 005°21'0 0.0
2018-Mar-17 03:58N 36°06' W 005°21'0 0.1
2018-Mar-17 03:28N 36°06' W 005°21'0 0.0
2018-Mar-17 02:28N 36°06' W 005°21'0 0.2
2018-Mar-17 01:58N 36°06' W 005°21'0 0.0
2018-Mar-17 01:28N 36°06' W 005°21'0 0.2
2018-Mar-17 00:58N 36°06' W 005°21'0 0.4
2018-Mar-17 00:30N 36°06' W 005°22'1 2.1
2018-Mar-17 00:00N 36°05' W 005°21'3 5.6
2018-Mar-16 23:30N 36°06' W 005°17'3 5.9
2018-Mar-16 23:00N 36°07' W 005°14'3 6.3
2018-Mar-16 22:30N 36°10' W 005°12'3 4.5
2018-Mar-16 21:45N 36°12' W 005°09'0 0.9
2018-Mar-16 21:30N 36°12' W 005°09'8 0.6
2018-Mar-16 09:06N 36°05' W 005°15'110.8
2018-Mar-16 09:00N 36°05' W 005°16'510.5
2018-Mar-16 08:30N 36°01' W 005°20'4 7.3
2018-Mar-16 08:00N 35°59' W 005°24'4 7.5
2018-Mar-16 07:30N 35°57' W 005°28'18 7.4
2018-Mar-16 05:03N 35°54' W 005°50'1 6.7
2018-Mar-16 04:58N 35°54' W 005°51'  
2018-Mar-12 20:46N 35°58' W 005°34'2 9.1
2018-Mar-12 20:30N 35°59' W 005°31'5 9.2
2018-Mar-12 20:01N 36°00' W 005°26'5 9.1
2018-Mar-12 19:30N 36°01' W 005°20'5 9.6
2018-Mar-12 19:00N 36°02' W 005°14'214 9.6
2018-Mar-11 20:44N 37°15' W 001°03'511.5
2018-Mar-11 20:16N 37°18' W 000°58'411.6
2018-Mar-11 19:56N 37°21' W 000°55'510.8
2018-Mar-11 19:29N 37°24' W 000°50'510.4
2018-Mar-11 19:00N 37°27' W 000°45'510.3
2018-Mar-11 18:29N 37°30' W 000°40'510.4
2018-Mar-11 18:00N 37°33' W 000°35'511.0
2018-Mar-11 17:30N 37°38' W 000°30'611.8
2018-Mar-11 17:00N 37°43' W 000°27'612.9
2018-Mar-11 16:30N 37°48' W 000°22'713.2
2018-Mar-11 16:00N 37°54' W 000°18'612.8
2018-Mar-11 15:30N 37°59' W 000°13'612.3
2018-Mar-11 15:00N 38°04' W 000°09'1212.3
2018-Mar-11 14:01N 38°14' W 000°00'012.0
2018-Mar-11 14:00N 38°14' W 000°00'1412.8
2018-Mar-11 12:55N 38°26' E 000°10'  

Dump ship's entire track history